sensor_id;sensor_type;location;lat;lon;timestamp;pressure;altitude;pressure_sealevel;temperature;humidity
1472;BME280;963;42.644;23.336;2023-05-20T00:02:16;94525.97;;;13.98;75.49
1472;BME280;963;42.644;23.336;2023-05-20T00:04:41;94517.69;;;14.07;74.82
1472;BME280;963;42.644;23.336;2023-05-20T00:07:08;94515.00;;;14.00;74.95
1472;BME280;963;42.644;23.336;2023-05-20T00:09:33;94512.31;;;13.89;75.39
1472;BME280;963;42.644;23.336;2023-05-20T00:11:58;94515.06;;;14.07;74.30
1472;BME280;963;42.644;23.336;2023-05-20T00:14:24;94514.00;;;14.19;74.11
1472;BME280;963;42.644;23.336;2023-05-20T00:16:49;94515.91;;;14.22;74.32
1472;BME280;963;42.644;23.336;2023-05-20T00:19:15;94514.00;;;14.19;73.38
1472;BME280;963;42.644;23.336;2023-05-20T00:21:40;94510.19;;;14.13;73.29
1472;BME280;963;42.644;23.336;2023-05-20T00:24:06;94516.19;;;14.09;73.08
1472;BME280;963;42.644;23.336;2023-05-20T00:26:31;94512.09;;;14.16;72.58
1472;BME280;963;42.644;23.336;2023-05-20T00:28:56;94515.91;;;14.18;73.09
1472;BME280;963;42.644;23.336;2023-05-20T00:31:22;94525.75;;;14.21;73.32
1472;BME280;963;42.644;23.336;2023-05-20T00:33:48;94514.78;;;14.23;74.22
1472;BME280;963;42.644;23.336;2023-05-20T00:36:13;94513.22;;;14.15;73.20
1472;BME280;963;42.644;23.336;2023-05-20T00:38:39;94500.94;;;13.82;73.84
1472;BME280;963;42.644;23.336;2023-05-20T00:41:04;94510.69;;;13.74;74.47
1472;BME280;963;42.644;23.336;2023-05-20T00:43:30;94498.03;;;13.50;75.57
1472;BME280;963;42.644;23.336;2023-05-20T00:45:55;94485.91;;;13.41;75.09
1472;BME280;963;42.644;23.336;2023-05-20T00:48:20;94488.50;;;13.38;75.56
1472;BME280;963;42.644;23.336;2023-05-20T00:50:48;94507.09;;;13.49;75.45
1472;BME280;963;42.644;23.336;2023-05-20T00:53:15;94488.56;;;13.41;75.31
1472;BME280;963;42.644;23.336;2023-05-20T00:55:41;94486.94;;;13.30;75.83
1472;BME280;963;42.644;23.336;2023-05-20T00:58:07;94487.75;;;13.37;76.04
1472;BME280;963;42.644;23.336;2023-05-20T01:00:32;94462.19;;;13.49;75.22
1472;BME280;963;42.644;23.336;2023-05-20T01:02:58;94473.63;;;13.67;75.76
1472;BME280;963;42.644;23.336;2023-05-20T01:05:23;94475.19;;;13.75;75.69
1472;BME280;963;42.644;23.336;2023-05-20T01:07:49;94480.53;;;13.82;75.13
1472;BME280;963;42.644;23.336;2023-05-20T01:10:15;94474.88;;;13.80;75.05
1472;BME280;963;42.644;23.336;2023-05-20T01:12:48;94474.78;;;13.73;75.14
1472;BME280;963;42.644;23.336;2023-05-20T01:15:15;94467.56;;;13.63;75.37
1472;BME280;963;42.644;23.336;2023-05-20T01:17:46;94488.78;;;13.73;75.61
1472;BME280;963;42.644;23.336;2023-05-20T01:20:14;94501.22;;;13.73;75.76
1472;BME280;963;42.644;23.336;2023-05-20T01:22:52;94503.09;;;13.69;76.59
1472;BME280;963;42.644;23.336;2023-05-20T01:25:18;94501.94;;;13.19;78.61
1472;BME280;963;42.644;23.336;2023-05-20T01:27:43;94486.72;;;12.71;80.93
1472;BME280;963;42.644;23.336;2023-05-20T01:30:09;94502.34;;;13.24;79.40
1472;BME280;963;42.644;23.336;2023-05-20T01:32:41;94501.75;;;13.01;79.50
1472;BME280;963;42.644;23.336;2023-05-20T01:35:07;94510.69;;;12.93;79.81
1472;BME280;963;42.644;23.336;2023-05-20T01:37:35;94504.09;;;12.42;81.83
1472;BME280;963;42.644;23.336;2023-05-20T01:40:04;94481.00;;;12.32;82.88
1472;BME280;963;42.644;23.336;2023-05-20T01:42:31;94492.06;;;12.45;82.57
1472;BME280;963;42.644;23.336;2023-05-20T01:44:58;94493.84;;;12.67;81.65
1472;BME280;963;42.644;23.336;2023-05-20T01:47:24;94490.63;;;12.84;81.02
1472;BME280;963;42.644;23.336;2023-05-20T01:49:49;94474.59;;;12.67;80.41
1472;BME280;963;42.644;23.336;2023-05-20T01:52:19;94477.31;;;12.74;79.96
1472;BME280;963;42.644;23.336;2023-05-20T01:54:44;94486.31;;;12.69;80.17
1472;BME280;963;42.644;23.336;2023-05-20T01:57:18;94480.47;;;12.87;79.45
1472;BME280;963;42.644;23.336;2023-05-20T01:59:43;94485.16;;;13.04;78.69
1472;BME280;963;42.644;23.336;2023-05-20T02:02:09;94495.00;;;13.07;79.31
1472;BME280;963;42.644;23.336;2023-05-20T02:04:34;94486.75;;;13.12;79.75
1472;BME280;963;42.644;23.336;2023-05-20T02:07:00;94470.72;;;13.31;78.72
1472;BME280;963;42.644;23.336;2023-05-20T02:09:25;94474.88;;;13.32;78.26
1472;BME280;963;42.644;23.336;2023-05-20T02:11:51;94481.41;;;13.45;78.11
1472;BME280;963;42.644;23.336;2023-05-20T02:14:16;94462.88;;;13.42;77.26
1472;BME280;963;42.644;23.336;2023-05-20T02:16:42;94484.06;;;13.45;77.06
1472;BME280;963;42.644;23.336;2023-05-20T02:19:07;94474.97;;;13.43;77.22
1472;BME280;963;42.644;23.336;2023-05-20T02:21:40;94500.81;;;12.86;79.04
1472;BME280;963;42.644;23.336;2023-05-20T02:24:06;94479.16;;;12.70;79.88
1472;BME280;963;42.644;23.336;2023-05-20T02:26:32;94469.09;;;12.82;80.36
1472;BME280;963;42.644;23.336;2023-05-20T02:28:58;94470.59;;;12.80;79.65
1472;BME280;963;42.644;23.336;2023-05-20T02:31:24;94467.59;;;12.81;79.25
1472;BME280;963;42.644;23.336;2023-05-20T02:33:50;94456.41;;;12.58;80.19
1472;BME280;963;42.644;23.336;2023-05-20T02:36:15;94463.88;;;12.52;80.84
1472;BME280;963;42.644;23.336;2023-05-20T02:38:42;94472.16;;;12.51;81.61
1472;BME280;963;42.644;23.336;2023-05-20T02:41:07;94476.16;;;12.38;82.58
1472;BME280;963;42.644;23.336;2023-05-20T02:43:33;94475.56;;;12.51;82.25
1472;BME280;963;42.644;23.336;2023-05-20T02:46:01;94476.16;;;12.38;83.08
1472;BME280;963;42.644;23.336;2023-05-20T02:48:26;94491.38;;;12.21;83.72
1472;BME280;963;42.644;23.336;2023-05-20T02:50:52;94460.91;;;12.24;83.03
1472;BME280;963;42.644;23.336;2023-05-20T02:53:17;94457.34;;;12.39;81.74
1472;BME280;963;42.644;23.336;2023-05-20T02:55:45;94466.41;;;12.42;80.60
1472;BME280;963;42.644;23.336;2023-05-20T02:58:11;94465.59;;;12.71;79.29
1472;BME280;963;42.644;23.336;2023-05-20T03:00:37;94463.47;;;12.84;78.48
1472;BME280;963;42.644;23.336;2023-05-20T03:03:07;94465.41;;;12.91;78.16
1472;BME280;963;42.644;23.336;2023-05-20T03:05:34;94455.47;;;12.77;78.52
1472;BME280;963;42.644;23.336;2023-05-20T03:08:06;94469.41;;;12.74;78.69
1472;BME280;963;42.644;23.336;2023-05-20T03:10:34;94476.09;;;12.64;79.34
1472;BME280;963;42.644;23.336;2023-05-20T03:12:59;94474.88;;;12.58;79.72
1472;BME280;963;42.644;23.336;2023-05-20T03:15:25;94475.53;;;12.48;80.20
1472;BME280;963;42.644;23.336;2023-05-20T03:17:50;94488.47;;;12.60;80.03
1472;BME280;963;42.644;23.336;2023-05-20T03:20:16;94488.78;;;12.89;78.54
1472;BME280;963;42.644;23.336;2023-05-20T03:22:41;94491.94;;;13.01;77.85
1472;BME280;963;42.644;23.336;2023-05-20T03:25:07;94482.94;;;13.06;77.61
1472;BME280;963;42.644;23.336;2023-05-20T03:27:33;94481.41;;;13.05;77.10
1472;BME280;963;42.644;23.336;2023-05-20T03:30:02;94490.59;;;13.18;76.97
1472;BME280;963;42.644;23.336;2023-05-20T03:32:27;94475.50;;;13.19;77.75
1472;BME280;963;42.644;23.336;2023-05-20T03:34:52;94494.47;;;13.28;78.18
1472;BME280;963;42.644;23.336;2023-05-20T03:37:18;94483.47;;;13.22;78.71
1472;BME280;963;42.644;23.336;2023-05-20T03:39:44;94492.16;;;13.23;78.55
1472;BME280;963;42.644;23.336;2023-05-20T03:42:09;94505.75;;;13.25;77.59
1472;BME280;963;42.644;23.336;2023-05-20T03:44:35;94492.97;;;13.30;77.58
1472;BME280;963;42.644;23.336;2023-05-20T03:47:00;94494.06;;;13.26;77.78
1472;BME280;963;42.644;23.336;2023-05-20T03:49:26;94489.94;;;13.28;77.70
1472;BME280;963;42.644;23.336;2023-05-20T03:51:51;94498.25;;;13.30;77.31
1472;BME280;963;42.644;23.336;2023-05-20T03:54:17;94517.97;;;13.40;77.46
1472;BME280;963;42.644;23.336;2023-05-20T03:56:42;94515.72;;;13.42;77.46
1472;BME280;963;42.644;23.336;2023-05-20T03:59:08;94511.59;;;13.44;77.79
1472;BME280;963;42.644;23.336;2023-05-20T04:01:34;94509.31;;;13.43;77.92
1472;BME280;963;42.644;23.336;2023-05-20T04:03:59;94519.13;;;13.42;77.52
1472;BME280;963;42.644;23.336;2023-05-20T04:06:25;94508.97;;;13.48;77.79
1472;BME280;963;42.644;23.336;2023-05-20T04:08:50;94512.78;;;13.51;77.35
1472;BME280;963;42.644;23.336;2023-05-20T04:11:17;94521.97;;;13.23;78.61
1472;BME280;963;42.644;23.336;2023-05-20T04:13:43;94522.53;;;13.43;78.42
1472;BME280;963;42.644;23.336;2023-05-20T04:16:08;94527.34;;;13.34;78.77
1472;BME280;963;42.644;23.336;2023-05-20T04:18:33;94520.03;;;13.61;77.85
1472;BME280;963;42.644;23.336;2023-05-20T04:21:03;94531.75;;;13.63;77.76
1472;BME280;963;42.644;23.336;2023-05-20T04:23:29;94530.25;;;13.66;78.54
1472;BME280;963;42.644;23.336;2023-05-20T04:25:54;94517.84;;;13.73;77.99
1472;BME280;963;42.644;23.336;2023-05-20T04:28:22;94517.56;;;13.82;77.53
1472;BME280;963;42.644;23.336;2023-05-20T04:30:48;94513.78;;;13.83;77.47
1472;BME280;963;42.644;23.336;2023-05-20T04:33:14;94511.50;;;13.78;77.48
1472;BME280;963;42.644;23.336;2023-05-20T04:35:40;94509.22;;;13.80;77.61
1472;BME280;963;42.644;23.336;2023-05-20T04:38:06;94510.78;;;13.88;77.42
1472;BME280;963;42.644;23.336;2023-05-20T04:40:32;94501.00;;;13.96;77.56
1472;BME280;963;42.644;23.336;2023-05-20T04:43:01;94512.44;;;14.11;77.01
1472;BME280;963;42.644;23.336;2023-05-20T04:45:28;94512.88;;;14.20;76.73
1472;BME280;963;42.644;23.336;2023-05-20T04:47:53;94525.41;;;14.30;76.90
1472;BME280;963;42.644;23.336;2023-05-20T04:50:18;94514.06;;;14.33;76.58
1472;BME280;963;42.644;23.336;2023-05-20T04:52:45;94535.31;;;14.44;76.35
1472;BME280;963;42.644;23.336;2023-05-20T04:55:11;94526.31;;;14.52;75.95
1472;BME280;963;42.644;23.336;2023-05-20T04:57:37;94530.88;;;14.58;75.53
1472;BME280;963;42.644;23.336;2023-05-20T05:00:10;94522.97;;;14.65;76.12
1472;BME280;963;42.644;23.336;2023-05-20T05:02:36;94528.63;;;14.64;75.54
1472;BME280;963;42.644;23.336;2023-05-20T05:05:02;94530.19;;;14.79;75.36
1472;BME280;963;42.644;23.336;2023-05-20T05:07:28;94529.81;;;14.84;74.74
1472;BME280;963;42.644;23.336;2023-05-20T05:09:53;94520.34;;;14.80;74.93
1472;BME280;963;42.644;23.336;2023-05-20T05:12:18;94534.41;;;14.91;74.35
1472;BME280;963;42.644;23.336;2023-05-20T05:14:44;94531.75;;;14.87;74.96
1472;BME280;963;42.644;23.336;2023-05-20T05:17:09;94525.72;;;14.94;74.57
1472;BME280;963;42.644;23.336;2023-05-20T05:19:35;94542.38;;;15.09;74.17
1472;BME280;963;42.644;23.336;2023-05-20T05:22:00;94538.63;;;15.13;74.07
1472;BME280;963;42.644;23.336;2023-05-20T05:24:25;94534.84;;;15.21;74.09
1472;BME280;963;42.644;23.336;2023-05-20T05:26:54;94545.47;;;15.25;73.97
1472;BME280;963;42.644;23.336;2023-05-20T05:29:19;94524.66;;;15.30;73.69
1472;BME280;963;42.644;23.336;2023-05-20T05:31:45;94520.50;;;15.29;73.86
1472;BME280;963;42.644;23.336;2023-05-20T05:34:10;94522.38;;;15.47;72.64
1472;BME280;963;42.644;23.336;2023-05-20T05:36:38;94517.09;;;15.54;72.30
1472;BME280;963;42.644;23.336;2023-05-20T05:39:03;94518.97;;;15.57;72.04
1472;BME280;963;42.644;23.336;2023-05-20T05:41:29;94507.66;;;15.67;70.52
1472;BME280;963;42.644;23.336;2023-05-20T05:43:54;94527.75;;;15.79;70.62
1472;BME280;963;42.644;23.336;2023-05-20T05:46:20;94522.03;;;15.84;70.65
1472;BME280;963;42.644;23.336;2023-05-20T05:48:45;94519.00;;;15.85;71.38
1472;BME280;963;42.644;23.336;2023-05-20T05:51:13;94517.09;;;15.97;71.11
1472;BME280;963;42.644;23.336;2023-05-20T05:53:39;94517.09;;;16.07;70.97
1472;BME280;963;42.644;23.336;2023-05-20T05:56:05;94507.63;;;16.10;70.94
1472;BME280;963;42.644;23.336;2023-05-20T05:58:31;94508.72;;;16.26;70.63
1472;BME280;963;42.644;23.336;2023-05-20T06:00:57;94506.47;;;16.18;70.83
1472;BME280;963;42.644;23.336;2023-05-20T06:03:22;94502.28;;;16.20;70.79
1472;BME280;963;42.644;23.336;2023-05-20T06:05:48;94513.63;;;16.42;70.46
1472;BME280;963;42.644;23.336;2023-05-20T06:08:14;94526.53;;;16.40;70.62
1472;BME280;963;42.644;23.336;2023-05-20T06:10:39;94500.72;;;16.44;70.69
1472;BME280;963;42.644;23.336;2023-05-20T06:13:05;94510.56;;;16.47;70.79
1472;BME280;963;42.644;23.336;2023-05-20T06:15:30;94532.13;;;16.60;70.64
1472;BME280;963;42.644;23.336;2023-05-20T06:17:56;94502.91;;;16.78;70.01
1472;BME280;963;42.644;23.336;2023-05-20T06:20:21;94499.47;;;16.81;70.20
1472;BME280;963;42.644;23.336;2023-05-20T06:22:46;94495.59;;;16.93;69.39
1472;BME280;963;42.644;23.336;2023-05-20T06:25:12;94493.63;;;17.04;68.26
1472;BME280;963;42.644;23.336;2023-05-20T06:27:38;94494.75;;;17.06;67.59
1472;BME280;963;42.644;23.336;2023-05-20T06:30:04;94497.34;;;17.21;67.48
1472;BME280;963;42.644;23.336;2023-05-20T06:32:29;94491.19;;;17.31;66.46
1472;BME280;963;42.644;23.336;2023-05-20T06:34:55;94489.28;;;17.31;63.88
1472;BME280;963;42.644;23.336;2023-05-20T06:37:20;94476.34;;;17.37;64.11
1472;BME280;963;42.644;23.336;2023-05-20T06:39:48;94475.91;;;17.42;62.99
1472;BME280;963;42.644;23.336;2023-05-20T06:42:18;94482.69;;;17.54;62.63
1472;BME280;963;42.644;23.336;2023-05-20T06:44:44;94467.84;;;17.56;61.23
1472;BME280;963;42.644;23.336;2023-05-20T06:47:09;94471.19;;;17.67;61.14
1472;BME280;963;42.644;23.336;2023-05-20T06:49:34;94471.22;;;17.60;59.90
1472;BME280;963;42.644;23.336;2023-05-20T06:52:00;94453.78;;;17.56;59.83
1472;BME280;963;42.644;23.336;2023-05-20T06:54:25;94460.53;;;17.67;60.40
1472;BME280;963;42.644;23.336;2023-05-20T06:56:51;94477.34;;;17.57;60.23
1472;BME280;963;42.644;23.336;2023-05-20T06:59:16;94489.41;;;17.65;59.96
1472;BME280;963;42.644;23.336;2023-05-20T07:01:41;94485.22;;;17.71;58.85
1472;BME280;963;42.644;23.336;2023-05-20T07:04:07;94480.44;;;17.48;58.81
1472;BME280;963;42.644;23.336;2023-05-20T07:06:32;94480.38;;;17.56;58.44
1472;BME280;963;42.644;23.336;2023-05-20T07:08:58;94472.63;;;17.75;58.76
1472;BME280;963;42.644;23.336;2023-05-20T07:11:23;94489.25;;;17.90;59.36
1472;BME280;963;42.644;23.336;2023-05-20T07:13:48;94482.66;;;18.02;59.30
1472;BME280;963;42.644;23.336;2023-05-20T07:16:14;94472.31;;;18.11;58.11
1472;BME280;963;42.644;23.336;2023-05-20T07:18:39;94487.13;;;18.12;57.89
1472;BME280;963;42.644;23.336;2023-05-20T07:21:05;94474.72;;;17.98;57.91
1472;BME280;963;42.644;23.336;2023-05-20T07:23:30;94469.16;;;18.23;58.72
1472;BME280;963;42.644;23.336;2023-05-20T07:25:55;94468.66;;;18.32;58.61
1472;BME280;963;42.644;23.336;2023-05-20T07:28:21;94464.44;;;18.34;57.81
1472;BME280;963;42.644;23.336;2023-05-20T07:30:47;94467.78;;;18.42;57.96
1472;BME280;963;42.644;23.336;2023-05-20T07:33:15;94456.97;;;18.56;58.87
1472;BME280;963;42.644;23.336;2023-05-20T07:35:42;94467.19;;;18.65;57.65
1472;BME280;963;42.644;23.336;2023-05-20T07:38:07;94467.09;;;18.72;57.59
1472;BME280;963;42.644;23.336;2023-05-20T07:40:32;94467.22;;;18.58;56.14
1472;BME280;963;42.644;23.336;2023-05-20T07:42:58;94469.84;;;18.65;56.46
1472;BME280;963;42.644;23.336;2023-05-20T07:45:23;94463.25;;;18.73;56.94
1472;BME280;963;42.644;23.336;2023-05-20T07:47:49;94462.22;;;18.94;56.95
1472;BME280;963;42.644;23.336;2023-05-20T07:50:14;94471.13;;;19.11;55.65
1472;BME280;963;42.644;23.336;2023-05-20T07:52:39;94458.47;;;19.18;55.89
1472;BME280;963;42.644;23.336;2023-05-20T07:55:05;94459.03;;;19.29;54.59
1472;BME280;963;42.644;23.336;2023-05-20T07:57:31;94467.41;;;19.31;54.62
1472;BME280;963;42.644;23.336;2023-05-20T07:59:56;94468.16;;;19.32;55.08
1472;BME280;963;42.644;23.336;2023-05-20T08:02:22;94451.72;;;19.37;54.46
1472;BME280;963;42.644;23.336;2023-05-20T08:04:47;94455.66;;;19.02;53.13
1472;BME280;963;42.644;23.336;2023-05-20T08:07:12;94458.97;;;19.10;53.56
1472;BME280;963;42.644;23.336;2023-05-20T08:09:38;94464.25;;;19.13;54.12
1472;BME280;963;42.644;23.336;2023-05-20T08:12:03;94445.75;;;19.26;54.91
1472;BME280;963;42.644;23.336;2023-05-20T08:14:29;94459.59;;;19.44;55.32
1472;BME280;963;42.644;23.336;2023-05-20T08:16:55;94455.66;;;19.52;54.63
1472;BME280;963;42.644;23.336;2023-05-20T08:19:20;94454.13;;;19.28;54.46
1472;BME280;963;42.644;23.336;2023-05-20T08:21:46;94461.75;;;19.26;54.68
1472;BME280;963;42.644;23.336;2023-05-20T08:24:11;94460.66;;;19.50;53.92
1472;BME280;963;42.644;23.336;2023-05-20T08:26:37;94473.56;;;19.55;54.04
1472;BME280;963;42.644;23.336;2023-05-20T08:29:02;94468.75;;;19.43;54.30
1472;BME280;963;42.644;23.336;2023-05-20T08:31:27;94455.75;;;19.72;53.64
1472;BME280;963;42.644;23.336;2023-05-20T08:33:53;94462.53;;;19.77;54.48
1472;BME280;963;42.644;23.336;2023-05-20T08:36:18;94444.75;;;19.90;54.07
1472;BME280;963;42.644;23.336;2023-05-20T08:38:44;94449.97;;;19.97;52.67
1472;BME280;963;42.644;23.336;2023-05-20T08:41:09;94438.94;;;19.75;52.95
1472;BME280;963;42.644;23.336;2023-05-20T08:43:36;94445.31;;;19.81;53.72
1472;BME280;963;42.644;23.336;2023-05-20T08:46:01;94443.00;;;20.03;53.10
1472;BME280;963;42.644;23.336;2023-05-20T08:48:29;94446.66;;;20.13;52.46
1472;BME280;963;42.644;23.336;2023-05-20T08:50:56;94437.94;;;20.28;52.94
1472;BME280;963;42.644;23.336;2023-05-20T08:53:22;94449.56;;;20.42;52.62
1472;BME280;963;42.644;23.336;2023-05-20T08:55:52;94459.13;;;20.39;51.93
1472;BME280;963;42.644;23.336;2023-05-20T08:58:20;94450.06;;;20.13;51.71
1472;BME280;963;42.644;23.336;2023-05-20T09:00:46;94449.94;;;20.20;52.81
1472;BME280;963;42.644;23.336;2023-05-20T09:03:12;94444.19;;;20.42;53.18
1472;BME280;963;42.644;23.336;2023-05-20T09:05:37;94428.88;;;20.46;51.77
1472;BME280;963;42.644;23.336;2023-05-20T09:08:10;94429.28;;;20.44;51.67
1472;BME280;963;42.644;23.336;2023-05-20T09:10:37;94428.59;;;20.60;52.35
1472;BME280;963;42.644;23.336;2023-05-20T09:13:04;94429.09;;;20.71;53.26
1472;BME280;963;42.644;23.336;2023-05-20T09:15:30;94424.09;;;20.73;51.81
1472;BME280;963;42.644;23.336;2023-05-20T09:18:01;94422.97;;;20.90;52.03
1472;BME280;963;42.644;23.336;2023-05-20T09:20:27;94432.09;;;20.93;51.18
1472;BME280;963;42.644;23.336;2023-05-20T09:23:00;94424.63;;;20.84;51.96
1472;BME280;963;42.644;23.336;2023-05-20T09:25:25;94431.16;;;20.83;51.32
1472;BME280;963;42.644;23.336;2023-05-20T09:27:51;94419.50;;;20.74;51.53
1472;BME280;963;42.644;23.336;2023-05-20T09:30:20;94423.59;;;20.78;52.52
1472;BME280;963;42.644;23.336;2023-05-20T09:32:59;94428.31;;;20.90;51.53
1472;BME280;963;42.644;23.336;2023-05-20T09:35:26;94412.88;;;20.98;50.39
1472;BME280;963;42.644;23.336;2023-05-20T09:37:53;94398.31;;;20.99;51.00
1472;BME280;963;42.644;23.336;2023-05-20T09:40:28;94414.28;;;21.03;50.30
1472;BME280;963;42.644;23.336;2023-05-20T09:43:05;94404.25;;;21.07;51.65
1472;BME280;963;42.644;23.336;2023-05-20T09:45:36;94400.81;;;21.26;51.10
1472;BME280;963;42.644;23.336;2023-05-20T09:48:03;94397.84;;;21.20;49.97
1472;BME280;963;42.644;23.336;2023-05-20T09:50:30;94391.81;;;21.16;50.98
1472;BME280;963;42.644;23.336;2023-05-20T09:53:01;94391.06;;;21.16;50.83
1472;BME280;963;42.644;23.336;2023-05-20T09:55:26;94388.34;;;21.36;51.60
1472;BME280;963;42.644;23.336;2023-05-20T09:57:52;94401.28;;;21.37;50.53
1472;BME280;963;42.644;23.336;2023-05-20T10:00:19;94380.06;;;21.30;50.87
1472;BME280;963;42.644;23.336;2023-05-20T10:02:51;94385.06;;;21.44;50.34
1472;BME280;963;42.644;23.336;2023-05-20T10:05:23;94384.88;;;21.51;50.17
1472;BME280;963;42.644;23.336;2023-05-20T10:10:40;94378.34;;;21.69;51.26
1472;BME280;963;42.644;23.336;2023-05-20T10:18:40;94370.03;;;21.34;48.64
1472;BME280;963;42.644;23.336;2023-05-20T10:21:17;94359.22;;;21.38;49.33
1472;BME280;963;42.644;23.336;2023-05-20T10:23:43;94355.28;;;21.59;49.02
1472;BME280;963;42.644;23.336;2023-05-20T10:26:08;94346.41;;;21.62;49.19
1472;BME280;963;42.644;23.336;2023-05-20T10:28:35;94368.63;;;21.75;49.13
1472;BME280;963;42.644;23.336;2023-05-20T10:31:02;94355.59;;;21.90;49.17
1472;BME280;963;42.644;23.336;2023-05-20T10:33:28;94358.34;;;22.02;49.22
1472;BME280;963;42.644;23.336;2023-05-20T10:35:58;94343.63;;;21.94;46.95
1472;BME280;963;42.644;23.336;2023-05-20T10:38:24;94357.19;;;21.87;45.70
1472;BME280;963;42.644;23.336;2023-05-20T10:40:51;94334.56;;;22.04;45.60
1472;BME280;963;42.644;23.336;2023-05-20T10:43:25;94350.00;;;21.84;45.87
1472;BME280;963;42.644;23.336;2023-05-20T10:45:54;94330.03;;;22.01;46.49
1472;BME280;963;42.644;23.336;2023-05-20T10:48:24;94320.66;;;22.09;46.10
1472;BME280;963;42.644;23.336;2023-05-20T10:50:52;94311.81;;;21.96;44.62
1472;BME280;963;42.644;23.336;2023-05-20T10:53:21;94327.78;;;21.71;45.14
1472;BME280;963;42.644;23.336;2023-05-20T10:55:48;94328.25;;;21.82;45.24
1472;BME280;963;42.644;23.336;2023-05-20T10:58:16;94327.22;;;21.92;45.19
1472;BME280;963;42.644;23.336;2023-05-20T11:00:42;94309.50;;;21.82;44.95
1472;BME280;963;42.644;23.336;2023-05-20T11:03:08;94313.16;;;21.88;45.06
1472;BME280;963;42.644;23.336;2023-05-20T11:05:34;94320.28;;;21.95;45.80
1472;BME280;963;42.644;23.336;2023-05-20T11:08:07;94317.00;;;22.03;46.11
1472;BME280;963;42.644;23.336;2023-05-20T11:10:35;94304.06;;;22.27;45.42
1472;BME280;963;42.644;23.336;2023-05-20T11:13:02;94324.31;;;22.28;44.66
1472;BME280;963;42.644;23.336;2023-05-20T11:15:29;94321.28;;;22.13;44.34
1472;BME280;963;42.644;23.336;2023-05-20T11:18:02;94301.75;;;22.00;44.01
1472;BME280;963;42.644;23.336;2023-05-20T11:20:29;94303.34;;;21.98;43.59
1472;BME280;963;42.644;23.336;2023-05-20T11:22:55;94287.56;;;21.87;43.97
1472;BME280;963;42.644;23.336;2023-05-20T11:25:21;94298.56;;;21.76;44.58
1472;BME280;963;42.644;23.336;2023-05-20T11:27:50;94313.44;;;21.65;44.63
1472;BME280;963;42.644;23.336;2023-05-20T11:30:16;94285.69;;;21.42;45.06
1472;BME280;963;42.644;23.336;2023-05-20T11:33:02;94284.59;;;21.56;45.06
1472;BME280;963;42.644;23.336;2023-05-20T11:35:29;94290.31;;;21.71;45.28
1472;BME280;963;42.644;23.336;2023-05-20T11:38:05;94283.06;;;21.26;46.02
1472;BME280;963;42.644;23.336;2023-05-20T11:40:32;94286.22;;;21.21;47.17
1472;BME280;963;42.644;23.336;2023-05-20T11:42:59;94275.97;;;21.03;46.45
1472;BME280;963;42.644;23.336;2023-05-20T11:45:25;94281.63;;;21.21;46.51
1472;BME280;963;42.644;23.336;2023-05-20T11:48:03;94277.22;;;20.66;47.62
1472;BME280;963;42.644;23.336;2023-05-20T11:50:34;94285.25;;;20.99;47.47
1472;BME280;963;42.644;23.336;2023-05-20T11:53:02;94271.53;;;20.97;46.46
1472;BME280;963;42.644;23.336;2023-05-20T11:55:28;94258.75;;;21.04;47.33
1472;BME280;963;42.644;23.336;2023-05-20T11:57:57;94263.25;;;21.07;47.60
1472;BME280;963;42.644;23.336;2023-05-20T12:00:22;94262.25;;;21.01;47.44
1472;BME280;963;42.644;23.336;2023-05-20T12:02:48;94270.88;;;20.76;48.53
1472;BME280;963;42.644;23.336;2023-05-20T12:05:14;94269.56;;;20.84;49.40
1472;BME280;963;42.644;23.336;2023-05-20T12:07:40;94276.72;;;20.71;49.25
1472;BME280;963;42.644;23.336;2023-05-20T12:10:06;94258.69;;;20.59;49.23
1472;BME280;963;42.644;23.336;2023-05-20T12:12:31;94259.84;;;20.74;49.60
1472;BME280;963;42.644;23.336;2023-05-20T12:14:57;94277.38;;;20.75;50.41
1472;BME280;963;42.644;23.336;2023-05-20T12:17:22;94261.19;;;20.50;50.44
1472;BME280;963;42.644;23.336;2023-05-20T12:19:48;94249.94;;;20.39;50.65
1472;BME280;963;42.644;23.336;2023-05-20T12:22:13;94264.75;;;20.43;50.36
1472;BME280;963;42.644;23.336;2023-05-20T12:24:38;94282.63;;;20.10;50.65
1472;BME280;963;42.644;23.336;2023-05-20T12:27:04;94312.97;;;20.00;51.72
1472;BME280;963;42.644;23.336;2023-05-20T12:29:31;94307.59;;;19.17;53.15
1472;BME280;963;42.644;23.336;2023-05-20T12:31:56;94312.75;;;18.54;52.87
1472;BME280;963;42.644;23.336;2023-05-20T12:34:21;94331.03;;;18.25;54.58
1472;BME280;963;42.644;23.336;2023-05-20T12:36:47;94300.13;;;17.70;58.08
1472;BME280;963;42.644;23.336;2023-05-20T12:39:12;94306.25;;;17.67;58.04
1472;BME280;963;42.644;23.336;2023-05-20T12:41:39;94335.50;;;17.67;58.12
1472;BME280;963;42.644;23.336;2023-05-20T12:44:06;94311.00;;;17.49;58.49
1472;BME280;963;42.644;23.336;2023-05-20T12:46:31;94323.88;;;17.50;58.36
1472;BME280;963;42.644;23.336;2023-05-20T12:48:57;94323.69;;;17.31;58.84
1472;BME280;963;42.644;23.336;2023-05-20T12:51:22;94319.44;;;17.37;58.15
1472;BME280;963;42.644;23.336;2023-05-20T12:53:47;94317.06;;;17.49;58.26
1472;BME280;963;42.644;23.336;2023-05-20T12:56:13;94307.56;;;17.48;57.99
1472;BME280;963;42.644;23.336;2023-05-20T12:58:38;94303.00;;;17.49;58.07
1472;BME280;963;42.644;23.336;2023-05-20T13:01:04;94310.13;;;17.59;58.04
1472;BME280;963;42.644;23.336;2023-05-20T13:03:29;94294.22;;;17.90;57.76
1472;BME280;963;42.644;23.336;2023-05-20T13:05:55;94301.03;;;18.21;56.54
1472;BME280;963;42.644;23.336;2023-05-20T13:08:20;94296.97;;;18.40;56.11
1472;BME280;963;42.644;23.336;2023-05-20T13:10:45;94261.66;;;18.63;54.85
1472;BME280;963;42.644;23.336;2023-05-20T13:13:11;94271.78;;;18.71;54.71
1472;BME280;963;42.644;23.336;2023-05-20T13:15:38;94270.34;;;19.14;54.29
1472;BME280;963;42.644;23.336;2023-05-20T13:18:03;94263.81;;;19.38;54.07
1472;BME280;963;42.644;23.336;2023-05-20T13:20:30;94257.31;;;19.39;53.25
1472;BME280;963;42.644;23.336;2023-05-20T13:22:56;94268.28;;;19.64;52.66
1472;BME280;963;42.644;23.336;2023-05-20T13:25:21;94277.34;;;19.71;52.50
1472;BME280;963;42.644;23.336;2023-05-20T13:27:47;94262.19;;;19.64;53.10